»·PEaware :: N2RF KSLC-KEGE

N2RF :: KSLC-KEGE

FLIGHT INFORMATION

Flight Status: Arrived
Operator: Privately registered:
United States
More flights under this callsign
Pilot: Max W. (2591)
Aircraft: SOCATA TBM-900
(TBM9)
More flights by this aircraft type
Origin: KSLC Salt Lake City Intl
United States
Destination: KEGE Eagle Co Regl
United States
More flights between these airports :: More routes between these airports
Route: +SLC4 EKR RLG
File this flight plan on PilotEdge
Remarks: STUDENT PILOT BE NICE IF POSSIBLE ONLY HAVE 1 STRIKE LEFT
Altitude:
(Current/Filed)
27,000ft
Speed:
(Current/Filed)
450kts
Departed: 11-Jan-19 04:58 PM
Arrived: 11-Jan-19 06:02 PM
Distance/Time
Traveled:
242nm/1:04
Distance/Time
To Go:
Arrived

Flight Plot

Page will automatically refresh every two minutes.

Flight plan parsing failed; only flown route is shown


Map Options




Map Legend


Flown Route
Filed Route
Departure Airport
Arrival Airport
Navaid (VOR, NDB)
Fix

Horizontal Profiles

Position Reports

Time Latitude Longitude Heading Altitude Ground
Speed
11-Jan-19 16:09 40.775028 -111.959224 358 4230ft 0kts
11-Jan-19 16:10 40.775028 -111.959224 358 4230ft 0kts
11-Jan-19 16:11 40.775028 -111.959224 358 4230ft 0kts
11-Jan-19 16:13 40.775028 -111.959224 358 4230ft 0kts
11-Jan-19 16:13 40.775028 -111.959224 358 4230ft 0kts
11-Jan-19 16:14 40.775028 -111.959224 358 4230ft 0kts
11-Jan-19 16:15 40.775028 -111.959224 358 4230ft 0kts
11-Jan-19 16:16 40.775028 -111.959224 358 4230ft 0kts
11-Jan-19 16:17 40.775028 -111.959224 358 4230ft 0kts
11-Jan-19 16:18 40.775028 -111.959224 358 4230ft 0kts
11-Jan-19 16:19 40.775028 -111.959224 358 4230ft 0kts
11-Jan-19 16:20 40.775028 -111.959224 358 4230ft 0kts
11-Jan-19 16:21 40.775028 -111.959224 358 4230ft 0kts
11-Jan-19 16:22 40.775028 -111.959224 358 4230ft 0kts
11-Jan-19 16:23 40.775028 -111.959224 358 4230ft 0kts
11-Jan-19 16:24 40.775028 -111.959224 358 4230ft 0kts
11-Jan-19 16:25 40.775028 -111.959224 358 4230ft 0kts
11-Jan-19 16:26 40.775028 -111.959224 358 4230ft 0kts
11-Jan-19 16:27 40.775028 -111.959224 358 4230ft 0kts
11-Jan-19 16:28 40.775028 -111.959224 358 4230ft 0kts
11-Jan-19 16:29 40.775028 -111.959224 358 4230ft 0kts
11-Jan-19 16:30 40.775028 -111.959224 358 4230ft 0kts
11-Jan-19 16:31 40.775028 -111.959224 358 4230ft 0kts
11-Jan-19 16:32 40.775028 -111.959224 358 4230ft 0kts
11-Jan-19 16:33 40.775028 -111.959224 358 4230ft 0kts
11-Jan-19 16:34 40.775028 -111.959224 358 4230ft 0kts
11-Jan-19 16:35 40.775028 -111.959224 358 4230ft 0kts
11-Jan-19 16:36 40.775028 -111.959224 358 4230ft 0kts
11-Jan-19 16:37 40.775028 -111.959224 358 4230ft 0kts
11-Jan-19 16:38 40.775028 -111.959224 358 4230ft 0kts
11-Jan-19 16:39 40.775028 -111.959224 358 4230ft 0kts
11-Jan-19 16:40 40.775028 -111.959224 358 4230ft 0kts
11-Jan-19 16:41 40.775028 -111.959224 358 4230ft 0kts
11-Jan-19 16:42 40.775028 -111.959224 358 4230ft 0kts
11-Jan-19 16:43 40.775028 -111.959224 358 4230ft 0kts
11-Jan-19 16:44 40.775028 -111.959224 358 4230ft 0kts
11-Jan-19 16:45 40.775028 -111.959224 358 4230ft 0kts
11-Jan-19 16:46 40.775028 -111.959224 358 4230ft 0kts
11-Jan-19 16:47 40.775028 -111.959224 358 4230ft 0kts
11-Jan-19 16:48 40.775028 -111.959224 358 4230ft 0kts
11-Jan-19 16:49 40.775028 -111.959224 358 4230ft 0kts
11-Jan-19 16:50 40.775028 -111.959224 358 4230ft 0kts
11-Jan-19 16:51 40.775028 -111.959224 358 4230ft 0kts
11-Jan-19 16:52 40.775242 -111.959315 276 4230ft 3kts
11-Jan-19 16:53 40.775229 -111.959595 269 4230ft 0kts
11-Jan-19 16:54 40.775229 -111.959597 269 4230ft 0kts
11-Jan-19 16:55 40.772777 -111.960850 245 4230ft 2kts
11-Jan-19 16:56 40.772764 -111.961185 266 4230ft 9kts
11-Jan-19 16:57 40.789682 -111.961961 359 4659ft 132kts
11-Jan-19 16:58 40.829538 -111.961744 0 6902ft 146kts
11-Jan-19 16:59 40.875097 -111.962067 0 8840ft 171kts
11-Jan-19 17:00 40.923108 -111.963170 0 10986ft 175kts
11-Jan-19 17:01 40.959253 -111.938416 94 12944ft 186kts
11-Jan-19 17:02 40.946742 -111.870822 99 14939ft 193kts
11-Jan-19 17:03 40.932655 -111.801315 98 16849ft 199kts
11-Jan-19 17:04 40.917920 -111.729060 97 18703ft 207kts
11-Jan-19 17:05 40.902597 -111.654241 96 20338ft 214kts
11-Jan-19 17:06 40.886592 -111.576396 96 21969ft 223kts
11-Jan-19 17:07 40.870023 -111.496056 95 23543ft 230kts
11-Jan-19 17:08 40.852716 -111.412504 95 24968ft 240kts
11-Jan-19 17:09 40.835818 -111.331317 96 26438ft 249kts
11-Jan-19 17:10 40.816626 -111.239034 96 27265ft 285kts
11-Jan-19 17:11 40.793963 -111.131222 98 27248ft 316kts
11-Jan-19 17:12 40.769926 -111.017293 98 27246ft 325kts
11-Jan-19 17:13 40.745312 -110.901314 99 27245ft 328kts
11-Jan-19 17:14 40.720524 -110.785192 100 27245ft 329kts
11-Jan-19 17:15 40.695510 -110.668555 100 27245ft 330kts
11-Jan-19 17:16 40.670354 -110.551929 99 27246ft 330kts
11-Jan-19 17:17 40.645023 -110.435059 100 27246ft 330kts
11-Jan-19 17:18 40.619982 -110.320154 100 27239ft 331kts
11-Jan-19 17:19 40.594347 -110.203175 100 27230ft 331kts
11-Jan-19 17:20 40.568658 -110.086586 100 27227ft 331kts
11-Jan-19 17:21 40.542898 -109.970258 100 27228ft 331kts
11-Jan-19 17:22 40.516987 -109.853890 100 27228ft 331kts
11-Jan-19 17:23 40.490922 -109.737433 100 27228ft 331kts
11-Jan-19 17:24 40.464709 -109.620944 100 27230ft 332kts
11-Jan-19 17:25 40.438348 -109.504404 100 27230ft 332kts
11-Jan-19 17:26 40.411977 -109.388383 100 27229ft 332kts
11-Jan-19 17:27 40.386097 -109.275155 101 27229ft 332kts
11-Jan-19 17:28 40.359395 -109.158827 101 27229ft 332kts
11-Jan-19 17:29 40.332559 -109.042536 102 27229ft 333kts
11-Jan-19 17:30 40.305543 -108.926215 103 27230ft 333kts
11-Jan-19 17:31 40.278381 -108.809797 103 27230ft 333kts
11-Jan-19 17:32 40.251098 -108.693426 103 27229ft 333kts
11-Jan-19 17:33 40.223752 -108.577372 103 27212ft 334kts
11-Jan-19 17:34 40.197183 -108.465186 103 27195ft 334kts
11-Jan-19 17:35 40.178280 -108.349407 92 26568ft 345kts
11-Jan-19 17:36 40.172561 -108.223331 82 25381ft 345kts
11-Jan-19 17:37 40.177847 -108.098554 82 24198ft 341kts
11-Jan-19 17:38 40.183274 -107.973423 82 22410ft 346kts
11-Jan-19 17:39 40.188708 -107.850119 82 21137ft 318kts
11-Jan-19 17:40 40.193492 -107.734865 82 20215ft 316kts
11-Jan-19 17:41 40.197893 -107.624523 82 20195ft 293kts
11-Jan-19 17:42 40.201846 -107.518755 81 20201ft 287kts
11-Jan-19 17:43 40.195187 -107.410493 99 18989ft 320kts
11-Jan-19 17:44 40.173472 -107.299583 100 17280ft 325kts
11-Jan-19 17:45 40.151309 -107.186389 100 15820ft 312kts
11-Jan-19 17:46 40.130221 -107.079259 99 15109ft 289kts
11-Jan-19 17:47 40.110335 -106.978501 100 14831ft 288kts
11-Jan-19 17:48 40.090856 -106.880489 101 15105ft 278kts
11-Jan-19 17:49 40.071117 -106.781701 102 15100ft 281kts
11-Jan-19 17:50 40.051261 -106.682800 102 15075ft 281kts
11-Jan-19 17:51 40.014246 -106.594586 163 14080ft 304kts
11-Jan-19 17:52 39.933620 -106.582451 164 13989ft 283kts
11-Jan-19 17:53 39.862420 -106.557988 164 13986ft 274kts
11-Jan-19 17:54 39.788357 -106.534463 182 13936ft 267kts
11-Jan-19 17:55 39.713530 -106.564105 198 13027ft 288kts
11-Jan-19 17:57 39.681005 -106.641220 282 12201ft 281kts
11-Jan-19 17:58 39.667141 -106.733280 266 11100ft 218kts
11-Jan-19 17:59 39.660392 -106.797020 254 9499ft 142kts
11-Jan-19 18:00 39.651269 -106.842831 253 7772ft 129kts
11-Jan-19 18:01 39.645915 -106.887482 262 6833ft 120kts
11-Jan-19 18:02 39.642407 -106.910293 162 6444ft 7kts
11-Jan-19 18:03 39.641919 -106.906644 348 6444ft 0kts
11-Jan-19 18:04 39.641919 -106.906644 348 6444ft 0kts
11-Jan-19 18:05 39.641919 -106.906644 348 6444ft 0kts
11-Jan-19 18:06 39.641919 -106.906644 348 6444ft 0kts
11-Jan-19 18:07 39.641919 -106.906644 348 6444ft 0kts
11-Jan-19 18:08 39.641919 -106.906644 348 6444ft 0kts
11-Jan-19 18:09 39.641919 -106.906644 348 6444ft 0kts
11-Jan-19 18:10 39.641919 -106.906644 348 6444ft 0kts
11-Jan-19 18:11 39.641919 -106.906644 348 6444ft 0kts
11-Jan-19 18:12 39.641919 -106.906644 348 6444ft 0kts
11-Jan-19 18:13 39.641919 -106.906644 348 6444ft 0kts
11-Jan-19 18:14 39.641919 -106.906644 348 6444ft 0kts
11-Jan-19 18:15 39.641919 -106.906644 348 6444ft 0kts
11-Jan-19 18:15 39.641919 -106.906644 348 6444ft 0kts
11-Jan-19 18:16 39.641919 -106.906644 348 6444ft 0kts

Navigation Log

Ident Type
Flight plan parsing failed, navigation log unavailable